sensor_id;sensor_type;location;lat;lon;timestamp;pressure;altitude;pressure_sealevel;temperature;humidity
53526;BME280;40551;50.478;19.378;2023-06-22T00:01:47;98096.77;;;20.01;80.39
53526;BME280;40551;50.478;19.378;2023-06-22T00:04:19;98096.52;;;19.99;80.62
53526;BME280;40551;50.478;19.378;2023-06-22T00:06:51;98093.55;;;19.91;80.52
53526;BME280;40551;50.478;19.378;2023-06-22T00:09:23;98093.16;;;19.84;80.42
53526;BME280;40551;50.478;19.378;2023-06-22T00:11:56;98087.34;;;19.82;80.51
53526;BME280;40551;50.478;19.378;2023-06-22T00:14:30;98077.08;;;19.79;80.73
53526;BME280;40551;50.478;19.378;2023-06-22T00:17:02;98077.73;;;19.75;80.68
53526;BME280;40551;50.478;19.378;2023-06-22T00:19:34;98081.57;;;19.69;80.97
53526;BME280;40551;50.478;19.378;2023-06-22T00:22:07;98077.92;;;19.66;81.13
53526;BME280;40551;50.478;19.378;2023-06-22T00:24:39;98070.40;;;19.61;81.03
53526;BME280;40551;50.478;19.378;2023-06-22T00:27:11;98066.18;;;19.57;81.50
53526;BME280;40551;50.478;19.378;2023-06-22T00:29:43;98069.37;;;19.55;81.82
53526;BME280;40551;50.478;19.378;2023-06-22T00:32:16;98073.19;;;19.54;81.81
53526;BME280;40551;50.478;19.378;2023-06-22T00:34:50;98077.64;;;19.54;81.91
53526;BME280;40551;50.478;19.378;2023-06-22T00:37:22;98073.69;;;19.53;82.16
53526;BME280;40551;50.478;19.378;2023-06-22T00:39:56;98078.48;;;19.53;82.29
53526;BME280;40551;50.478;19.378;2023-06-22T00:42:29;98084.35;;;19.54;82.48
53526;BME280;40551;50.478;19.378;2023-06-22T00:45:03;98083.16;;;19.53;82.61
53526;BME280;40551;50.478;19.378;2023-06-22T00:47:35;98079.98;;;19.52;82.52
53526;BME280;40551;50.478;19.378;2023-06-22T00:50:09;98080.67;;;19.50;82.61
53526;BME280;40551;50.478;19.378;2023-06-22T00:52:45;98081.08;;;19.48;82.72
53526;BME280;40551;50.478;19.378;2023-06-22T00:55:17;98078.89;;;19.45;82.79
53526;BME280;40551;50.478;19.378;2023-06-22T00:57:50;98084.45;;;19.41;82.83
53526;BME280;40551;50.478;19.378;2023-06-22T01:00:26;98084.54;;;19.35;82.79
53526;BME280;40551;50.478;19.378;2023-06-22T01:02:59;98083.52;;;19.28;82.89
53526;BME280;40551;50.478;19.378;2023-06-22T01:05:32;98080.33;;;19.23;83.14
53526;BME280;40551;50.478;19.378;2023-06-22T01:08:15;98080.30;;;19.17;83.15
53526;BME280;40551;50.478;19.378;2023-06-22T01:10:52;98081.39;;;19.16;83.30
53526;BME280;40551;50.478;19.378;2023-06-22T01:13:30;98082.97;;;19.13;83.41
53526;BME280;40551;50.478;19.378;2023-06-22T01:16:08;98085.89;;;19.10;83.52
53526;BME280;40551;50.478;19.378;2023-06-22T01:18:44;98081.13;;;19.07;83.60
53526;BME280;40551;50.478;19.378;2023-06-22T01:21:19;98091.42;;;19.07;83.76
53526;BME280;40551;50.478;19.378;2023-06-22T01:24:06;98097.12;;;19.09;84.01
53526;BME280;40551;50.478;19.378;2023-06-22T01:26:46;98098.70;;;19.12;84.08
53526;BME280;40551;50.478;19.378;2023-06-22T01:29:26;98105.83;;;19.14;84.07
53526;BME280;40551;50.478;19.378;2023-06-22T01:31:59;98107.25;;;19.17;83.97
53526;BME280;40551;50.478;19.378;2023-06-22T01:34:33;98105.19;;;19.18;83.99
53526;BME280;40551;50.478;19.378;2023-06-22T01:37:07;98111.55;;;19.20;84.03
53526;BME280;40551;50.478;19.378;2023-06-22T01:39:40;98111.64;;;19.24;84.16
53526;BME280;40551;50.478;19.378;2023-06-22T01:42:13;98108.52;;;19.25;84.10
53526;BME280;40551;50.478;19.378;2023-06-22T01:44:48;98102.27;;;19.24;84.00
53526;BME280;40551;50.478;19.378;2023-06-22T01:47:21;98099.11;;;19.22;83.73
53526;BME280;40551;50.478;19.378;2023-06-22T01:49:54;98100.63;;;19.16;83.83
53526;BME280;40551;50.478;19.378;2023-06-22T01:52:26;98101.76;;;19.13;83.77
53526;BME280;40551;50.478;19.378;2023-06-22T01:54:59;98106.84;;;19.07;83.78
53526;BME280;40551;50.478;19.378;2023-06-22T01:57:31;98107.85;;;19.01;83.84
53526;BME280;40551;50.478;19.378;2023-06-22T02:00:06;98109.35;;;18.98;83.98
53526;BME280;40551;50.478;19.378;2023-06-22T02:02:50;98110.09;;;18.96;84.32
53526;BME280;40551;50.478;19.378;2023-06-22T02:05:25;98107.62;;;18.96;84.21
53526;BME280;40551;50.478;19.378;2023-06-22T02:08:02;98106.71;;;18.95;84.16
53526;BME280;40551;50.478;19.378;2023-06-22T02:10:39;98105.91;;;18.93;84.26
53526;BME280;40551;50.478;19.378;2023-06-22T02:13:14;98099.64;;;18.91;84.23
53526;BME280;40551;50.478;19.378;2023-06-22T02:15:46;98097.17;;;18.88;84.28
53526;BME280;40551;50.478;19.378;2023-06-22T02:18:19;98092.48;;;18.83;84.30
53526;BME280;40551;50.478;19.378;2023-06-22T02:20:51;98095.08;;;18.80;84.23
53526;BME280;40551;50.478;19.378;2023-06-22T02:23:25;98096.71;;;18.75;84.50
53526;BME280;40551;50.478;19.378;2023-06-22T02:25:57;98102.98;;;18.71;84.37
53526;BME280;40551;50.478;19.378;2023-06-22T02:28:29;98105.02;;;18.69;84.60
53526;BME280;40551;50.478;19.378;2023-06-22T02:31:01;98105.05;;;18.69;84.90
53526;BME280;40551;50.478;19.378;2023-06-22T02:33:33;98103.10;;;18.69;84.75
53526;BME280;40551;50.478;19.378;2023-06-22T02:36:06;98107.80;;;18.69;84.68
53526;BME280;40551;50.478;19.378;2023-06-22T02:38:39;98111.58;;;18.68;84.61
53526;BME280;40551;50.478;19.378;2023-06-22T02:41:19;98118.50;;;18.69;84.62
53526;BME280;40551;50.478;19.378;2023-06-22T02:43:51;98125.84;;;18.70;84.58
53526;BME280;40551;50.478;19.378;2023-06-22T02:46:23;98134.77;;;18.71;84.50
53526;BME280;40551;50.478;19.378;2023-06-22T02:49:13;98136.80;;;18.74;84.76
53526;BME280;40551;50.478;19.378;2023-06-22T02:51:48;98132.89;;;18.74;84.42
53526;BME280;40551;50.478;19.378;2023-06-22T02:54:23;98136.00;;;18.68;84.28
53526;BME280;40551;50.478;19.378;2023-06-22T02:56:55;98133.28;;;18.66;84.27
53526;BME280;40551;50.478;19.378;2023-06-22T02:59:27;98131.52;;;18.67;84.51
53526;BME280;40551;50.478;19.378;2023-06-22T03:02:06;98133.73;;;18.71;84.64
53526;BME280;40551;50.478;19.378;2023-06-22T03:04:38;98138.23;;;18.73;84.57
53526;BME280;40551;50.478;19.378;2023-06-22T03:07:10;98148.63;;;18.76;84.60
53526;BME280;40551;50.478;19.378;2023-06-22T03:09:42;98157.34;;;18.78;84.52
53526;BME280;40551;50.478;19.378;2023-06-22T03:12:14;98159.58;;;18.80;84.60
53526;BME280;40551;50.478;19.378;2023-06-22T03:14:52;98159.23;;;18.77;84.23
53526;BME280;40551;50.478;19.378;2023-06-22T03:17:24;98159.83;;;18.70;83.99
53526;BME280;40551;50.478;19.378;2023-06-22T03:19:56;98167.15;;;18.69;84.40
53526;BME280;40551;50.478;19.378;2023-06-22T03:22:28;98169.63;;;18.72;84.62
53526;BME280;40551;50.478;19.378;2023-06-22T03:25:00;98175.07;;;18.75;84.47
53526;BME280;40551;50.478;19.378;2023-06-22T03:27:32;98179.27;;;18.83;84.67
53526;BME280;40551;50.478;19.378;2023-06-22T03:30:05;98182.93;;;18.96;84.79
53526;BME280;40551;50.478;19.378;2023-06-22T03:32:37;98186.73;;;19.14;84.93
53526;BME280;40551;50.478;19.378;2023-06-22T03:35:11;98180.15;;;19.34;84.72
53526;BME280;40551;50.478;19.378;2023-06-22T03:37:44;98180.91;;;19.45;83.91
53526;BME280;40551;50.478;19.378;2023-06-22T03:40:16;98181.15;;;19.61;84.13
53526;BME280;40551;50.478;19.378;2023-06-22T03:42:48;98184.48;;;19.87;84.49
53526;BME280;40551;50.478;19.378;2023-06-22T03:45:20;98189.52;;;20.18;83.96
53526;BME280;40551;50.478;19.378;2023-06-22T03:47:51;98194.70;;;20.50;83.73
53526;BME280;40551;50.478;19.378;2023-06-22T03:50:24;98197.13;;;20.85;83.20
53526;BME280;40551;50.478;19.378;2023-06-22T03:52:56;98198.13;;;21.19;82.58
53526;BME280;40551;50.478;19.378;2023-06-22T03:55:28;98204.63;;;21.53;81.96
53526;BME280;40551;50.478;19.378;2023-06-22T03:58:03;98203.15;;;21.87;81.32
53526;BME280;40551;50.478;19.378;2023-06-22T04:00:37;98202.50;;;22.14;80.36
53526;BME280;40551;50.478;19.378;2023-06-22T04:03:08;98202.75;;;22.27;79.37
53526;BME280;40551;50.478;19.378;2023-06-22T04:05:43;98207.41;;;22.30;78.31
53526;BME280;40551;50.478;19.378;2023-06-22T04:08:15;98206.45;;;22.29;78.03
53526;BME280;40551;50.478;19.378;2023-06-22T04:10:47;98209.75;;;22.24;77.50
53526;BME280;40551;50.478;19.378;2023-06-22T04:13:19;98209.84;;;22.23;77.56
53526;BME280;40551;50.478;19.378;2023-06-22T04:15:50;98209.60;;;22.29;77.81
53526;BME280;40551;50.478;19.378;2023-06-22T04:18:22;98208.40;;;22.52;78.19
53526;BME280;40551;50.478;19.378;2023-06-22T04:20:54;98209.92;;;22.80;77.86
53526;BME280;40551;50.478;19.378;2023-06-22T04:23:26;98211.20;;;23.07;77.20
53526;BME280;40551;50.478;19.378;2023-06-22T04:25:57;98208.27;;;23.42;77.11
53526;BME280;40551;50.478;19.378;2023-06-22T04:28:30;98205.06;;;23.83;76.47
53526;BME280;40551;50.478;19.378;2023-06-22T04:31:05;98197.70;;;24.30;75.77
53526;BME280;40551;50.478;19.378;2023-06-22T04:33:37;98203.80;;;24.80;74.76
53526;BME280;40551;50.478;19.378;2023-06-22T04:36:11;98206.95;;;25.26;73.52
53526;BME280;40551;50.478;19.378;2023-06-22T04:38:43;98209.72;;;25.62;71.76
53526;BME280;40551;50.478;19.378;2023-06-22T04:41:16;98208.55;;;25.74;70.54
53526;BME280;40551;50.478;19.378;2023-06-22T04:43:54;98203.53;;;25.79;70.00
53526;BME280;40551;50.478;19.378;2023-06-22T04:46:30;98201.23;;;25.98;69.69
53526;BME280;40551;50.478;19.378;2023-06-22T04:49:09;98198.15;;;26.06;68.53
53526;BME280;40551;50.478;19.378;2023-06-22T04:51:51;98204.59;;;26.04;68.26
53526;BME280;40551;50.478;19.378;2023-06-22T04:54:29;98209.70;;;26.02;66.59
53526;BME280;40551;50.478;19.378;2023-06-22T04:57:08;98210.21;;;26.09;67.20
53526;BME280;40551;50.478;19.378;2023-06-22T04:59:43;98213.39;;;26.46;67.43
53526;BME280;40551;50.478;19.378;2023-06-22T05:02:15;98214.89;;;26.86;66.94
53526;BME280;40551;50.478;19.378;2023-06-22T05:04:46;98208.95;;;27.27;66.19
53526;BME280;40551;50.478;19.378;2023-06-22T05:07:25;98210.06;;;27.65;64.81
53526;BME280;40551;50.478;19.378;2023-06-22T05:09:57;98208.92;;;27.99;64.18
53526;BME280;40551;50.478;19.378;2023-06-22T05:12:31;98212.80;;;28.21;63.11
53526;BME280;40551;50.478;19.378;2023-06-22T05:15:03;98216.34;;;28.45;62.43
53526;BME280;40551;50.478;19.378;2023-06-22T05:17:37;98217.98;;;28.71;61.08
53526;BME280;40551;50.478;19.378;2023-06-22T05:20:14;98226.08;;;28.90;60.04
53526;BME280;40551;50.478;19.378;2023-06-22T05:22:48;98226.20;;;29.30;59.80
53526;BME280;40551;50.478;19.378;2023-06-22T05:25:20;98228.14;;;29.72;58.64
53526;BME280;40551;50.478;19.378;2023-06-22T05:27:52;98233.65;;;30.06;57.95
53526;BME280;40551;50.478;19.378;2023-06-22T05:30:24;98235.36;;;30.41;57.06
53526;BME280;40551;50.478;19.378;2023-06-22T05:32:56;98241.70;;;30.46;54.13
53526;BME280;40551;50.478;19.378;2023-06-22T05:35:28;98241.63;;;30.64;54.75
53526;BME280;40551;50.478;19.378;2023-06-22T05:38:00;98241.39;;;30.97;54.29
53526;BME280;40551;50.478;19.378;2023-06-22T05:40:31;98246.77;;;31.30;53.90
53526;BME280;40551;50.478;19.378;2023-06-22T05:43:03;98248.36;;;31.66;52.86
53526;BME280;40551;50.478;19.378;2023-06-22T05:45:35;98254.59;;;31.90;51.44
53526;BME280;40551;50.478;19.378;2023-06-22T05:48:08;98254.55;;;32.02;50.89
53526;BME280;40551;50.478;19.378;2023-06-22T05:50:41;98255.08;;;32.19;50.21
53526;BME280;40551;50.478;19.378;2023-06-22T05:53:13;98253.94;;;32.30;49.84
53526;BME280;40551;50.478;19.378;2023-06-22T05:55:45;98253.50;;;32.31;49.07
53526;BME280;40551;50.478;19.378;2023-06-22T05:58:17;98255.88;;;32.38;49.30
53526;BME280;40551;50.478;19.378;2023-06-22T06:00:48;98257.17;;;32.58;48.77
53526;BME280;40551;50.478;19.378;2023-06-22T06:03:20;98256.36;;;32.77;47.21
53526;BME280;40551;50.478;19.378;2023-06-22T06:05:52;98255.67;;;32.77;46.48
53526;BME280;40551;50.478;19.378;2023-06-22T06:08:24;98256.61;;;32.56;44.87
53526;BME280;40551;50.478;19.378;2023-06-22T06:10:55;98256.89;;;32.27;43.93
53526;BME280;40551;50.478;19.378;2023-06-22T06:13:28;98260.67;;;31.75;43.60
53526;BME280;40551;50.478;19.378;2023-06-22T06:15:59;98264.38;;;31.35;43.65
53526;BME280;40551;50.478;19.378;2023-06-22T06:18:31;98260.85;;;31.14;43.20
53526;BME280;40551;50.478;19.378;2023-06-22T06:21:03;98262.88;;;30.90;42.39
53526;BME280;40551;50.478;19.378;2023-06-22T06:23:35;98267.46;;;30.92;43.00
53526;BME280;40551;50.478;19.378;2023-06-22T06:26:07;98269.17;;;31.13;43.65
53526;BME280;40551;50.478;19.378;2023-06-22T06:28:39;98273.34;;;31.46;43.00
53526;BME280;40551;50.478;19.378;2023-06-22T06:31:11;98277.10;;;31.79;42.82
53526;BME280;40551;50.478;19.378;2023-06-22T06:33:47;98278.99;;;32.18;41.83
53526;BME280;40551;50.478;19.378;2023-06-22T06:36:19;98280.97;;;32.38;40.87
53526;BME280;40551;50.478;19.378;2023-06-22T06:38:51;98279.98;;;32.44;40.24
53526;BME280;40551;50.478;19.378;2023-06-22T06:41:23;98283.77;;;32.33;38.25
53526;BME280;40551;50.478;19.378;2023-06-22T06:43:55;98279.86;;;32.04;39.26
53526;BME280;40551;50.478;19.378;2023-06-22T06:46:27;98284.58;;;32.15;39.14
53526;BME280;40551;50.478;19.378;2023-06-22T06:48:59;98282.16;;;31.78;37.94
53526;BME280;40551;50.478;19.378;2023-06-22T06:51:31;98283.61;;;31.38;39.19
53526;BME280;40551;50.478;19.378;2023-06-22T06:54:03;98283.46;;;31.20;39.23
53526;BME280;40551;50.478;19.378;2023-06-22T06:56:34;98285.17;;;31.11;40.20
53526;BME280;40551;50.478;19.378;2023-06-22T06:59:06;98284.21;;;31.27;40.63
53526;BME280;40551;50.478;19.378;2023-06-22T07:01:38;98279.27;;;31.11;39.32
53526;BME280;40551;50.478;19.378;2023-06-22T07:04:10;98275.01;;;30.59;39.77
53526;BME280;40551;50.478;19.378;2023-06-22T07:06:42;98278.38;;;30.27;40.47
53526;BME280;40551;50.478;19.378;2023-06-22T07:09:14;98270.67;;;29.83;41.12
53526;BME280;40551;50.478;19.378;2023-06-22T07:11:45;98264.14;;;29.48;41.50
53526;BME280;40551;50.478;19.378;2023-06-22T07:14:17;98259.29;;;29.09;42.16
53526;BME280;40551;50.478;19.378;2023-06-22T07:16:49;98267.33;;;28.67;43.13
53526;BME280;40551;50.478;19.378;2023-06-22T07:19:26;98266.90;;;28.38;43.94
53526;BME280;40551;50.478;19.378;2023-06-22T07:21:58;98266.14;;;28.29;44.49
53526;BME280;40551;50.478;19.378;2023-06-22T07:24:31;98265.16;;;28.05;44.62
53526;BME280;40551;50.478;19.378;2023-06-22T07:27:07;98262.38;;;27.89;45.36
53526;BME280;40551;50.478;19.378;2023-06-22T07:29:41;98263.59;;;27.78;45.58
53526;BME280;40551;50.478;19.378;2023-06-22T07:32:13;98261.76;;;27.48;45.92
53526;BME280;40551;50.478;19.378;2023-06-22T07:34:45;98256.92;;;27.42;46.75
53526;BME280;40551;50.478;19.378;2023-06-22T07:37:17;98259.89;;;27.31;46.62
53526;BME280;40551;50.478;19.378;2023-06-22T07:39:49;98267.06;;;27.07;46.75
53526;BME280;40551;50.478;19.378;2023-06-22T07:42:24;98271.38;;;27.09;47.91
53526;BME280;40551;50.478;19.378;2023-06-22T07:44:57;98268.19;;;27.21;47.45
53526;BME280;40551;50.478;19.378;2023-06-22T07:47:29;98270.72;;;27.30;47.45
53526;BME280;40551;50.478;19.378;2023-06-22T07:50:07;98271.67;;;27.27;47.52
53526;BME280;40551;50.478;19.378;2023-06-22T07:52:38;98278.39;;;27.15;47.49
53526;BME280;40551;50.478;19.378;2023-06-22T07:55:10;98275.16;;;27.04;47.51
53526;BME280;40551;50.478;19.378;2023-06-22T07:57:42;98278.89;;;26.87;48.04
53526;BME280;40551;50.478;19.378;2023-06-22T08:00:15;98282.24;;;26.87;48.47
53526;BME280;40551;50.478;19.378;2023-06-22T08:02:48;98284.55;;;27.00;48.21
53526;BME280;40551;50.478;19.378;2023-06-22T08:05:20;98288.89;;;27.08;47.95
53526;BME280;40551;50.478;19.378;2023-06-22T08:07:52;98294.02;;;27.01;48.19
53526;BME280;40551;50.478;19.378;2023-06-22T08:10:25;98296.21;;;26.93;47.52
53526;BME280;40551;50.478;19.378;2023-06-22T08:12:57;98296.63;;;26.82;47.88
53526;BME280;40551;50.478;19.378;2023-06-22T08:15:29;98299.55;;;26.87;48.48
53526;BME280;40551;50.478;19.378;2023-06-22T08:18:01;98299.66;;;26.83;48.10
53526;BME280;40551;50.478;19.378;2023-06-22T08:20:33;98298.30;;;26.86;48.04
53526;BME280;40551;50.478;19.378;2023-06-22T08:23:05;98301.03;;;26.89;48.69
53526;BME280;40551;50.478;19.378;2023-06-22T08:25:39;98302.95;;;26.84;47.85
53526;BME280;40551;50.478;19.378;2023-06-22T08:28:10;98301.59;;;26.74;48.57
53526;BME280;40551;50.478;19.378;2023-06-22T08:30:43;98301.42;;;26.85;48.94
53526;BME280;40551;50.478;19.378;2023-06-22T08:33:15;98298.23;;;26.99;48.83
53526;BME280;40551;50.478;19.378;2023-06-22T08:35:59;98308.11;;;27.14;48.59
53526;BME280;40551;50.478;19.378;2023-06-22T08:38:31;98305.47;;;27.21;48.32
53526;BME280;40551;50.478;19.378;2023-06-22T08:41:02;98304.11;;;27.34;48.83
53526;BME280;40551;50.478;19.378;2023-06-22T08:43:34;98306.64;;;27.47;48.46
53526;BME280;40551;50.478;19.378;2023-06-22T08:46:06;98306.38;;;27.47;47.90
53526;BME280;40551;50.478;19.378;2023-06-22T08:48:37;98309.17;;;27.26;47.49
53526;BME280;40551;50.478;19.378;2023-06-22T08:51:09;98307.27;;;27.20;48.21
53526;BME280;40551;50.478;19.378;2023-06-22T08:53:41;98311.88;;;27.34;48.57
53526;BME280;40551;50.478;19.378;2023-06-22T08:56:13;98308.30;;;27.50;48.37
53526;BME280;40551;50.478;19.378;2023-06-22T08:58:45;98306.83;;;27.67;48.67
53526;BME280;40551;50.478;19.378;2023-06-22T09:01:17;98312.20;;;27.80;49.13
53526;BME280;40551;50.478;19.378;2023-06-22T09:03:48;98316.05;;;27.96;48.92
53526;BME280;40551;50.478;19.378;2023-06-22T09:06:26;98316.84;;;28.07;48.33
53526;BME280;40551;50.478;19.378;2023-06-22T09:08:57;98319.98;;;28.16;47.87
53526;BME280;40551;50.478;19.378;2023-06-22T09:11:31;98317.64;;;28.11;46.98
53526;BME280;40551;50.478;19.378;2023-06-22T09:14:02;98316.80;;;27.98;46.93
53526;BME280;40551;50.478;19.378;2023-06-22T09:16:35;98313.80;;;28.02;47.65
53526;BME280;40551;50.478;19.378;2023-06-22T09:19:07;98316.08;;;28.18;48.12
53526;BME280;40551;50.478;19.378;2023-06-22T09:21:38;98316.98;;;28.35;48.11
53526;BME280;40551;50.478;19.378;2023-06-22T09:24:10;98315.30;;;28.55;47.99
53526;BME280;40551;50.478;19.378;2023-06-22T09:26:42;98312.99;;;28.67;47.38
53526;BME280;40551;50.478;19.378;2023-06-22T09:29:14;98312.01;;;28.75;46.89
53526;BME280;40551;50.478;19.378;2023-06-22T09:31:46;98307.32;;;28.79;46.33
53526;BME280;40551;50.478;19.378;2023-06-22T09:34:18;98310.77;;;28.84;46.30
53526;BME280;40551;50.478;19.378;2023-06-22T09:36:50;98316.01;;;28.92;46.79
53526;BME280;40551;50.478;19.378;2023-06-22T09:39:22;98314.16;;;29.05;46.30
53526;BME280;40551;50.478;19.378;2023-06-22T09:41:57;98306.86;;;29.14;45.57
53526;BME280;40551;50.478;19.378;2023-06-22T09:44:30;98299.69;;;29.26;45.76
53526;BME280;40551;50.478;19.378;2023-06-22T09:47:02;98293.85;;;29.41;46.19
53526;BME280;40551;50.478;19.378;2023-06-22T09:49:34;98291.08;;;29.54;45.52
53526;BME280;40551;50.478;19.378;2023-06-22T09:52:10;98286.35;;;29.53;45.27
53526;BME280;40551;50.478;19.378;2023-06-22T09:54:42;98286.56;;;29.53;45.14
53526;BME280;40551;50.478;19.378;2023-06-22T09:57:14;98290.05;;;29.53;45.15
53526;BME280;40551;50.478;19.378;2023-06-22T09:59:46;98294.63;;;29.58;45.05
53526;BME280;40551;50.478;19.378;2023-06-22T10:02:20;98290.58;;;29.59;44.65
53526;BME280;40551;50.478;19.378;2023-06-22T10:04:53;98290.79;;;29.60;44.28
53526;BME280;40551;50.478;19.378;2023-06-22T10:07:25;98284.98;;;29.52;44.47
53526;BME280;40551;50.478;19.378;2023-06-22T10:09:56;98285.30;;;29.54;44.71
53526;BME280;40551;50.478;19.378;2023-06-22T10:12:30;98283.95;;;29.57;44.60
53526;BME280;40551;50.478;19.378;2023-06-22T10:15:02;98282.77;;;29.53;44.27
53526;BME280;40551;50.478;19.378;2023-06-22T10:17:34;98279.44;;;29.57;44.74
53526;BME280;40551;50.478;19.378;2023-06-22T10:20:08;98276.14;;;29.56;44.45
53526;BME280;40551;50.478;19.378;2023-06-22T10:22:44;98273.30;;;29.47;44.61
53526;BME280;40551;50.478;19.378;2023-06-22T10:25:16;98275.51;;;29.52;44.83
53526;BME280;40551;50.478;19.378;2023-06-22T10:27:48;98273.46;;;29.51;44.20
53526;BME280;40551;50.478;19.378;2023-06-22T10:30:20;98271.36;;;29.51;44.53
53526;BME280;40551;50.478;19.378;2023-06-22T10:32:51;98270.02;;;29.55;44.51
53526;BME280;40551;50.478;19.378;2023-06-22T10:35:23;98268.42;;;29.43;43.85
53526;BME280;40551;50.478;19.378;2023-06-22T10:37:56;98266.96;;;29.39;44.07
53526;BME280;40551;50.478;19.378;2023-06-22T10:40:27;98262.89;;;29.44;44.38
53526;BME280;40551;50.478;19.378;2023-06-22T10:42:59;98263.95;;;29.55;44.33
53526;BME280;40551;50.478;19.378;2023-06-22T10:45:31;98263.41;;;29.54;44.67
53526;BME280;40551;50.478;19.378;2023-06-22T10:48:04;98262.35;;;29.44;44.13
53526;BME280;40551;50.478;19.378;2023-06-22T10:50:36;98255.39;;;29.24;44.43
53526;BME280;40551;50.478;19.378;2023-06-22T10:53:07;98255.13;;;29.20;45.11
53526;BME280;40551;50.478;19.378;2023-06-22T10:55:39;98251.92;;;29.18;44.05
53526;BME280;40551;50.478;19.378;2023-06-22T10:58:17;98249.16;;;29.16;43.99
53526;BME280;40551;50.478;19.378;2023-06-22T11:00:49;98254.04;;;29.23;44.32
53526;BME280;40551;50.478;19.378;2023-06-22T11:03:21;98260.09;;;29.31;43.70
53526;BME280;40551;50.478;19.378;2023-06-22T11:05:53;98252.37;;;29.39;43.24
53526;BME280;40551;50.478;19.378;2023-06-22T11:08:24;98247.59;;;29.54;43.56
53526;BME280;40551;50.478;19.378;2023-06-22T11:10:56;98247.83;;;29.60;43.16
53526;BME280;40551;50.478;19.378;2023-06-22T11:13:28;98244.89;;;29.68;44.01
53526;BME280;40551;50.478;19.378;2023-06-22T11:16:00;98243.87;;;29.79;44.72
53526;BME280;40551;50.478;19.378;2023-06-22T11:18:33;98245.02;;;29.87;44.07
53526;BME280;40551;50.478;19.378;2023-06-22T11:21:05;98242.24;;;29.78;42.81
53526;BME280;40551;50.478;19.378;2023-06-22T11:23:37;98248.13;;;29.61;43.07
53526;BME280;40551;50.478;19.378;2023-06-22T11:26:09;98248.17;;;29.53;43.87
53526;BME280;40551;50.478;19.378;2023-06-22T11:28:40;98245.40;;;29.50;43.79
53526;BME280;40551;50.478;19.378;2023-06-22T11:31:15;98240.06;;;29.40;43.59
53526;BME280;40551;50.478;19.378;2023-06-22T11:33:56;98236.80;;;29.40;44.25
53526;BME280;40551;50.478;19.378;2023-06-22T11:36:29;98232.69;;;29.46;44.01
53526;BME280;40551;50.478;19.378;2023-06-22T11:39:04;98235.70;;;29.51;43.68
53526;BME280;40551;50.478;19.378;2023-06-22T11:41:36;98230.61;;;29.60;43.25
53526;BME280;40551;50.478;19.378;2023-06-22T11:44:08;98227.95;;;29.56;43.00
53526;BME280;40551;50.478;19.378;2023-06-22T11:46:40;98229.77;;;29.53;42.50
53526;BME280;40551;50.478;19.378;2023-06-22T11:49:12;98231.00;;;29.44;42.85
53526;BME280;40551;50.478;19.378;2023-06-22T11:51:43;98233.77;;;29.48;42.89
53526;BME280;40551;50.478;19.378;2023-06-22T11:54:15;98229.82;;;29.52;42.34
53526;BME280;40551;50.478;19.378;2023-06-22T11:56:47;98227.14;;;29.52;42.37
53526;BME280;40551;50.478;19.378;2023-06-22T11:59:19;98229.39;;;29.60;42.47
53526;BME280;40551;50.478;19.378;2023-06-22T12:01:51;98224.68;;;29.73;42.95
53526;BME280;40551;50.478;19.378;2023-06-22T12:04:23;98227.92;;;29.88;43.33
53526;BME280;40551;50.478;19.378;2023-06-22T12:06:55;98228.02;;;30.01;41.72
53526;BME280;40551;50.478;19.378;2023-06-22T12:09:29;98221.61;;;30.00;40.21
53526;BME280;40551;50.478;19.378;2023-06-22T12:12:01;98219.20;;;30.00;40.34
53526;BME280;40551;50.478;19.378;2023-06-22T12:14:37;98212.21;;;30.10;40.37
53526;BME280;40551;50.478;19.378;2023-06-22T12:17:09;98202.56;;;30.16;39.55
53526;BME280;40551;50.478;19.378;2023-06-22T12:19:41;98203.80;;;30.17;39.46
53526;BME280;40551;50.478;19.378;2023-06-22T12:22:14;98198.81;;;30.16;39.16
53526;BME280;40551;50.478;19.378;2023-06-22T12:24:46;98200.20;;;30.17;39.09
53526;BME280;40551;50.478;19.378;2023-06-22T12:27:19;98193.42;;;30.20;39.03
53526;BME280;40551;50.478;19.378;2023-06-22T12:29:51;98188.35;;;30.26;39.15
53526;BME280;40551;50.478;19.378;2023-06-22T12:32:23;98189.72;;;30.27;39.19
53526;BME280;40551;50.478;19.378;2023-06-22T12:34:56;98194.66;;;30.29;39.25
53526;BME280;40551;50.478;19.378;2023-06-22T12:37:28;98187.73;;;30.28;38.44
53526;BME280;40551;50.478;19.378;2023-06-22T12:40:06;98185.83;;;30.31;38.63
53526;BME280;40551;50.478;19.378;2023-06-22T12:42:39;98187.48;;;30.36;38.89
53526;BME280;40551;50.478;19.378;2023-06-22T12:45:13;98183.58;;;30.39;38.40
53526;BME280;40551;50.478;19.378;2023-06-22T12:47:45;98179.98;;;30.46;38.26
53526;BME280;40551;50.478;19.378;2023-06-22T12:50:17;98178.29;;;30.48;38.55
53526;BME280;40551;50.478;19.378;2023-06-22T12:52:49;98174.72;;;30.52;38.51
53526;BME280;40551;50.478;19.378;2023-06-22T12:55:20;98168.35;;;30.56;38.30
53526;BME280;40551;50.478;19.378;2023-06-22T12:57:52;98163.37;;;30.58;38.27
53526;BME280;40551;50.478;19.378;2023-06-22T13:00:24;98161.11;;;30.57;38.34
53526;BME280;40551;50.478;19.378;2023-06-22T13:02:56;98159.52;;;30.59;38.37
53526;BME280;40551;50.478;19.378;2023-06-22T13:05:30;98151.55;;;30.58;37.52
53526;BME280;40551;50.478;19.378;2023-06-22T13:08:02;98149.16;;;30.54;37.03
53526;BME280;40551;50.478;19.378;2023-06-22T13:10:35;98145.95;;;30.49;37.30
53526;BME280;40551;50.478;19.378;2023-06-22T13:13:11;98142.71;;;30.50;37.63
53526;BME280;40551;50.478;19.378;2023-06-22T13:15:43;98142.65;;;30.51;37.69
53526;BME280;40551;50.478;19.378;2023-06-22T13:18:15;98139.43;;;30.52;37.72
53526;BME280;40551;50.478;19.378;2023-06-22T13:20:47;98140.89;;;30.53;37.38